sensor_id;sensor_type;location;lat;lon;timestamp;pressure;altitude;pressure_sealevel;temperature;humidity
34073;BME280;20346;52.702;16.886;2023-05-23T00:00:33;100761.36;;;14.07;46.22
34073;BME280;20346;52.702;16.886;2023-05-23T00:03:21;100759.47;;;14.06;46.33
34073;BME280;20346;52.702;16.886;2023-05-23T00:06:07;100757.27;;;14.05;46.43
34073;BME280;20346;52.702;16.886;2023-05-23T00:08:55;100754.13;;;14.00;46.53
34073;BME280;20346;52.702;16.886;2023-05-23T00:11:41;100753.70;;;13.97;46.63
34073;BME280;20346;52.702;16.886;2023-05-23T00:14:30;100755.02;;;13.93;46.70
34073;BME280;20346;52.702;16.886;2023-05-23T00:17:18;100752.48;;;13.90;46.77
34073;BME280;20346;52.702;16.886;2023-05-23T00:20:06;100750.04;;;13.91;46.91
34073;BME280;20346;52.702;16.886;2023-05-23T00:22:55;100750.15;;;13.86;46.99
34073;BME280;20346;52.702;16.886;2023-05-23T00:25:44;100750.39;;;13.84;47.08
34073;BME280;20346;52.702;16.886;2023-05-23T00:28:33;100748.94;;;13.80;47.11
34073;BME280;20346;52.702;16.886;2023-05-23T00:31:19;100748.73;;;13.76;47.02
34073;BME280;20346;52.702;16.886;2023-05-23T00:34:05;100745.87;;;13.66;47.08
34073;BME280;20346;52.702;16.886;2023-05-23T00:36:51;100744.80;;;13.60;47.18
34073;BME280;20346;52.702;16.886;2023-05-23T00:39:39;100743.52;;;13.56;47.30
34073;BME280;20346;52.702;16.886;2023-05-23T00:42:25;100743.48;;;13.52;47.40
34073;BME280;20346;52.702;16.886;2023-05-23T00:45:11;100737.89;;;13.41;47.47
34073;BME280;20346;52.702;16.886;2023-05-23T00:47:57;100737.30;;;13.37;47.63
34073;BME280;20346;52.702;16.886;2023-05-23T00:50:45;100737.68;;;13.35;47.60
34073;BME280;20346;52.702;16.886;2023-05-23T00:53:31;100736.41;;;13.31;47.68
34073;BME280;20346;52.702;16.886;2023-05-23T00:56:19;100734.30;;;13.25;47.86
34073;BME280;20346;52.702;16.886;2023-05-23T00:59:06;100738.02;;;13.21;47.98
34073;BME280;20346;52.702;16.886;2023-05-23T01:01:55;100739.26;;;13.20;47.97
34073;BME280;20346;52.702;16.886;2023-05-23T01:04:42;100737.77;;;13.18;48.03
34073;BME280;20346;52.702;16.886;2023-05-23T01:07:29;100735.63;;;13.13;48.09
34073;BME280;20346;52.702;16.886;2023-05-23T01:10:20;100735.83;;;13.11;48.21
34073;BME280;20346;52.702;16.886;2023-05-23T01:16:18;100731.39;;;13.08;48.48
34073;BME280;20346;52.702;16.886;2023-05-23T01:19:43;100728.41;;;13.03;48.55
34073;BME280;20346;52.702;16.886;2023-05-23T01:23:03;100733.84;;;12.94;48.52
34073;BME280;20346;52.702;16.886;2023-05-23T01:28:53;100729.16;;;12.87;48.76
34073;BME280;20346;52.702;16.886;2023-05-23T01:31:43;100728.92;;;12.82;48.80
34073;BME280;20346;52.702;16.886;2023-05-23T01:34:32;100732.11;;;12.80;48.92
34073;BME280;20346;52.702;16.886;2023-05-23T01:37:20;100732.08;;;12.73;48.96
34073;BME280;20346;52.702;16.886;2023-05-23T01:40:06;100722.98;;;12.70;48.99
34073;BME280;20346;52.702;16.886;2023-05-23T01:42:55;100724.01;;;12.63;49.09
34073;BME280;20346;52.702;16.886;2023-05-23T01:45:44;100718.94;;;12.58;49.23
34073;BME280;20346;52.702;16.886;2023-05-23T01:48:31;100717.27;;;12.54;49.24
34073;BME280;20346;52.702;16.886;2023-05-23T01:51:18;100714.55;;;12.46;49.34
34073;BME280;20346;52.702;16.886;2023-05-23T01:54:06;100717.73;;;12.43;49.42
34073;BME280;20346;52.702;16.886;2023-05-23T01:56:52;100714.14;;;12.42;49.45
34073;BME280;20346;52.702;16.886;2023-05-23T01:59:39;100709.79;;;12.35;49.53
34073;BME280;20346;52.702;16.886;2023-05-23T02:02:25;100709.09;;;12.28;49.60
34073;BME280;20346;52.702;16.886;2023-05-23T02:05:12;100707.03;;;12.27;49.71
34073;BME280;20346;52.702;16.886;2023-05-23T02:07:58;100704.89;;;12.22;49.78
34073;BME280;20346;52.702;16.886;2023-05-23T02:10:44;100702.24;;;12.16;49.83
34073;BME280;20346;52.702;16.886;2023-05-23T02:13:30;100698.73;;;12.19;49.86
34073;BME280;20346;52.702;16.886;2023-05-23T02:16:16;100694.48;;;12.24;49.98
34073;BME280;20346;52.702;16.886;2023-05-23T02:19:03;100686.89;;;12.23;49.99
34073;BME280;20346;52.702;16.886;2023-05-23T02:21:49;100680.47;;;12.24;50.06
34073;BME280;20346;52.702;16.886;2023-05-23T02:24:35;100677.38;;;12.23;50.18
34073;BME280;20346;52.702;16.886;2023-05-23T02:27:21;100678.06;;;12.23;50.15
34073;BME280;20346;52.702;16.886;2023-05-23T02:30:08;100679.11;;;12.22;50.32
34073;BME280;20346;52.702;16.886;2023-05-23T02:32:54;100678.24;;;12.23;50.34
34073;BME280;20346;52.702;16.886;2023-05-23T02:35:40;100674.34;;;12.20;50.42
34073;BME280;20346;52.702;16.886;2023-05-23T02:38:27;100671.20;;;12.21;50.51
34073;BME280;20346;52.702;16.886;2023-05-23T02:41:14;100670.36;;;12.20;50.51
34073;BME280;20346;52.702;16.886;2023-05-23T02:44:00;100670.67;;;12.22;50.62
34073;BME280;20346;52.702;16.886;2023-05-23T02:46:46;100673.92;;;12.23;50.61
34073;BME280;20346;52.702;16.886;2023-05-23T02:49:32;100674.20;;;12.18;50.72
34073;BME280;20346;52.702;16.886;2023-05-23T02:52:19;100678.25;;;12.15;50.78
34073;BME280;20346;52.702;16.886;2023-05-23T02:55:06;100671.67;;;12.15;50.86
34073;BME280;20346;52.702;16.886;2023-05-23T02:57:52;100670.75;;;12.18;50.91
34073;BME280;20346;52.702;16.886;2023-05-23T03:00:38;100673.41;;;12.15;51.07
34073;BME280;20346;52.702;16.886;2023-05-23T03:03:24;100673.16;;;12.18;51.07
34073;BME280;20346;52.702;16.886;2023-05-23T03:06:13;100670.04;;;12.19;51.14
34073;BME280;20346;52.702;16.886;2023-05-23T03:09:02;100673.73;;;12.16;51.21
34073;BME280;20346;52.702;16.886;2023-05-23T03:11:48;100668.98;;;12.19;51.35
34073;BME280;20346;52.702;16.886;2023-05-23T03:14:35;100669.38;;;12.25;51.40
34073;BME280;20346;52.702;16.886;2023-05-23T03:17:24;100669.64;;;12.30;51.48
34073;BME280;20346;52.702;16.886;2023-05-23T03:20:10;100670.81;;;12.31;51.51
34073;BME280;20346;52.702;16.886;2023-05-23T03:22:56;100672.41;;;12.37;51.57
34073;BME280;20346;52.702;16.886;2023-05-23T03:25:42;100667.98;;;12.41;51.66
34073;BME280;20346;52.702;16.886;2023-05-23T03:28:31;100668.09;;;12.44;51.62
34073;BME280;20346;52.702;16.886;2023-05-23T03:31:18;100668.21;;;12.46;51.80
34073;BME280;20346;52.702;16.886;2023-05-23T03:34:04;100665.52;;;12.49;51.85
34073;BME280;20346;52.702;16.886;2023-05-23T03:36:51;100667.38;;;12.51;51.96
34073;BME280;20346;52.702;16.886;2023-05-23T03:39:38;100667.57;;;12.58;51.97
34073;BME280;20346;52.702;16.886;2023-05-23T03:42:24;100666.91;;;12.64;52.04
34073;BME280;20346;52.702;16.886;2023-05-23T03:45:10;100664.45;;;12.66;52.10
34073;BME280;20346;52.702;16.886;2023-05-23T03:48:00;100656.64;;;12.67;52.06
34073;BME280;20346;52.702;16.886;2023-05-23T03:50:47;100658.31;;;12.69;52.09
34073;BME280;20346;52.702;16.886;2023-05-23T03:53:33;100659.30;;;12.71;52.12
34073;BME280;20346;52.702;16.886;2023-05-23T03:56:19;100660.42;;;12.75;52.29
34073;BME280;20346;52.702;16.886;2023-05-23T03:59:06;100660.14;;;12.80;52.42
34073;BME280;20346;52.702;16.886;2023-05-23T04:01:52;100661.83;;;12.81;52.49
34073;BME280;20346;52.702;16.886;2023-05-23T04:05:01;100658.52;;;12.89;52.52
34073;BME280;20346;52.702;16.886;2023-05-23T04:08:50;100656.43;;;13.09;52.58
34073;BME280;20346;52.702;16.886;2023-05-23T04:11:42;100654.05;;;13.22;52.59
34073;BME280;20346;52.702;16.886;2023-05-23T04:14:29;100650.73;;;13.30;52.68
34073;BME280;20346;52.702;16.886;2023-05-23T04:17:21;100646.41;;;13.36;52.88
34073;BME280;20346;52.702;16.886;2023-05-23T04:20:29;100648.59;;;13.45;52.84
34073;BME280;20346;52.702;16.886;2023-05-23T04:23:23;100648.08;;;13.56;52.86
34073;BME280;20346;52.702;16.886;2023-05-23T04:27:14;100646.79;;;13.71;52.88
34073;BME280;20346;52.702;16.886;2023-05-23T04:30:36;100644.25;;;13.87;52.84
34073;BME280;20346;52.702;16.886;2023-05-23T04:34:08;100644.62;;;13.99;52.91
34073;BME280;20346;52.702;16.886;2023-05-23T04:37:55;100641.10;;;14.17;53.07
34073;BME280;20346;52.702;16.886;2023-05-23T04:40:58;100638.42;;;14.30;53.22
34073;BME280;20346;52.702;16.886;2023-05-23T04:44:33;100637.45;;;14.46;53.23
34073;BME280;20346;52.702;16.886;2023-05-23T04:48:09;100631.42;;;14.65;53.14
34073;BME280;20346;52.702;16.886;2023-05-23T04:51:56;100630.06;;;14.91;53.24
34073;BME280;20346;52.702;16.886;2023-05-23T04:55:24;100626.83;;;15.19;53.28
34073;BME280;20346;52.702;16.886;2023-05-23T04:58:34;100628.63;;;15.41;53.12
34073;BME280;20346;52.702;16.886;2023-05-23T05:01:29;100629.30;;;15.62;53.07
34073;BME280;20346;52.702;16.886;2023-05-23T05:04:58;100623.14;;;15.87;53.04
34073;BME280;20346;52.702;16.886;2023-05-23T05:08:25;100622.11;;;16.22;52.99
34073;BME280;20346;52.702;16.886;2023-05-23T05:12:13;100609.82;;;16.76;53.01
34073;BME280;20346;52.702;16.886;2023-05-23T05:16:01;100606.92;;;17.20;52.87
34073;BME280;20346;52.702;16.886;2023-05-23T05:19:11;100608.05;;;17.68;52.95
34073;BME280;20346;52.702;16.886;2023-05-23T05:22:09;100610.89;;;18.34;52.80
34073;BME280;20346;52.702;16.886;2023-05-23T05:25:41;100607.63;;;19.06;52.68
34073;BME280;20346;52.702;16.886;2023-05-23T05:28:55;100611.46;;;19.66;52.22
34073;BME280;20346;52.702;16.886;2023-05-23T05:32:01;100602.09;;;20.25;51.98
34073;BME280;20346;52.702;16.886;2023-05-23T05:35:51;100595.60;;;21.00;51.63
34073;BME280;20346;52.702;16.886;2023-05-23T05:39:18;100595.21;;;21.58;51.44
34073;BME280;20346;52.702;16.886;2023-05-23T05:43:06;100595.94;;;22.24;51.03
34073;BME280;20346;52.702;16.886;2023-05-23T05:46:55;100590.33;;;22.66;50.64
34073;BME280;20346;52.702;16.886;2023-05-23T05:50:41;100596.16;;;23.10;50.44
34073;BME280;20346;52.702;16.886;2023-05-23T05:54:29;100597.17;;;23.56;50.11
34073;BME280;20346;52.702;16.886;2023-05-23T05:58:19;100590.05;;;24.03;49.75
34073;BME280;20346;52.702;16.886;2023-05-23T06:01:51;100587.83;;;24.27;49.41
34073;BME280;20346;52.702;16.886;2023-05-23T06:05:23;100585.26;;;24.26;49.30
34073;BME280;20346;52.702;16.886;2023-05-23T06:09:02;100584.63;;;24.25;49.05
34073;BME280;20346;52.702;16.886;2023-05-23T06:12:21;100584.85;;;24.22;48.79
34073;BME280;20346;52.702;16.886;2023-05-23T06:16:06;100585.16;;;24.29;48.44
34073;BME280;20346;52.702;16.886;2023-05-23T06:19:04;100585.13;;;24.33;47.78
34073;BME280;20346;52.702;16.886;2023-05-23T06:21:57;100582.23;;;24.07;47.59
34073;BME280;20346;52.702;16.886;2023-05-23T06:25:06;100578.33;;;23.61;47.35
34073;BME280;20346;52.702;16.886;2023-05-23T06:28:15;100572.63;;;23.07;47.49
34073;BME280;20346;52.702;16.886;2023-05-23T06:31:03;100571.52;;;22.80;47.44
34073;BME280;20346;52.702;16.886;2023-05-23T06:33:52;100562.52;;;22.49;47.05
34073;BME280;20346;52.702;16.886;2023-05-23T06:36:47;100560.59;;;22.17;47.27
34073;BME280;20346;52.702;16.886;2023-05-23T06:39:57;100555.89;;;22.00;47.13
34073;BME280;20346;52.702;16.886;2023-05-23T06:43:30;100554.23;;;21.95;47.21
34073;BME280;20346;52.702;16.886;2023-05-23T06:47:13;100560.50;;;22.15;47.11
34073;BME280;20346;52.702;16.886;2023-05-23T06:50:07;100560.99;;;22.42;47.02
34073;BME280;20346;52.702;16.886;2023-05-23T06:53:56;100564.73;;;22.76;46.93
34073;BME280;20346;52.702;16.886;2023-05-23T06:57:13;100570.67;;;23.40;46.57
34073;BME280;20346;52.702;16.886;2023-05-23T07:00:25;100571.13;;;23.97;46.47
34073;BME280;20346;52.702;16.886;2023-05-23T07:03:11;100567.38;;;24.34;46.19
34073;BME280;20346;52.702;16.886;2023-05-23T07:06:15;100569.59;;;24.52;46.05
34073;BME280;20346;52.702;16.886;2023-05-23T07:09:33;100574.52;;;24.59;45.74
34073;BME280;20346;52.702;16.886;2023-05-23T07:12:19;100572.92;;;24.38;45.61
34073;BME280;20346;52.702;16.886;2023-05-23T07:15:07;100571.67;;;24.38;45.65
34073;BME280;20346;52.702;16.886;2023-05-23T07:17:54;100571.41;;;24.51;45.37
34073;BME280;20346;52.702;16.886;2023-05-23T07:20:41;100568.81;;;24.57;45.41
34073;BME280;20346;52.702;16.886;2023-05-23T07:23:27;100569.93;;;24.54;45.23
34073;BME280;20346;52.702;16.886;2023-05-23T07:26:17;100569.76;;;24.33;44.99
34073;BME280;20346;52.702;16.886;2023-05-23T07:29:03;100569.30;;;24.20;45.14
34073;BME280;20346;52.702;16.886;2023-05-23T07:31:49;100566.52;;;24.12;45.00
34073;BME280;20346;52.702;16.886;2023-05-23T07:34:36;100566.73;;;24.04;44.97
34073;BME280;20346;52.702;16.886;2023-05-23T07:37:22;100568.83;;;23.97;44.79
34073;BME280;20346;52.702;16.886;2023-05-23T07:40:09;100568.88;;;23.87;44.81
34073;BME280;20346;52.702;16.886;2023-05-23T07:42:56;100563.33;;;23.84;44.81
34073;BME280;20346;52.702;16.886;2023-05-23T07:45:45;100567.05;;;23.86;44.74
34073;BME280;20346;52.702;16.886;2023-05-23T07:48:31;100570.82;;;23.72;44.54
34073;BME280;20346;52.702;16.886;2023-05-23T07:51:18;100570.14;;;23.80;44.54
34073;BME280;20346;52.702;16.886;2023-05-23T07:54:06;100567.42;;;24.22;44.31
34073;BME280;20346;52.702;16.886;2023-05-23T07:56:53;100566.99;;;24.74;44.19
34073;BME280;20346;52.702;16.886;2023-05-23T07:59:39;100567.17;;;25.24;43.89
34073;BME280;20346;52.702;16.886;2023-05-23T08:02:30;100568.96;;;26.03;43.91
34073;BME280;20346;52.702;16.886;2023-05-23T08:05:18;100569.43;;;27.33;43.52
34073;BME280;20346;52.702;16.886;2023-05-23T08:08:09;100565.39;;;29.14;43.23
34073;BME280;20346;52.702;16.886;2023-05-23T08:10:57;100567.08;;;31.50;42.87
34073;BME280;20346;52.702;16.886;2023-05-23T08:13:44;100563.86;;;33.49;42.34
34073;BME280;20346;52.702;16.886;2023-05-23T08:16:32;100561.36;;;34.91;41.59
34073;BME280;20346;52.702;16.886;2023-05-23T08:19:18;100559.94;;;36.19;41.01
34073;BME280;20346;52.702;16.886;2023-05-23T08:22:05;100554.45;;;37.41;41.05
34073;BME280;20346;52.702;16.886;2023-05-23T08:24:51;100552.89;;;38.89;40.22
34073;BME280;20346;52.702;16.886;2023-05-23T08:27:37;100556.20;;;39.83;39.19
34073;BME280;20346;52.702;16.886;2023-05-23T08:30:28;100557.46;;;40.35;38.36
34073;BME280;20346;52.702;16.886;2023-05-23T08:33:18;100552.54;;;40.07;37.64
34073;BME280;20346;52.702;16.886;2023-05-23T08:36:04;100551.42;;;39.97;36.83
34073;BME280;20346;52.702;16.886;2023-05-23T08:38:51;100541.71;;;39.55;36.09
34073;BME280;20346;52.702;16.886;2023-05-23T08:41:38;100541.80;;;38.87;35.13
34073;BME280;20346;52.702;16.886;2023-05-23T08:44:47;100535.45;;;37.50;34.55
34073;BME280;20346;52.702;16.886;2023-05-23T08:47:56;100534.86;;;35.90;34.16
34073;BME280;20346;52.702;16.886;2023-05-23T08:50:47;100537.14;;;35.02;33.61
34073;BME280;20346;52.702;16.886;2023-05-23T08:53:37;100534.33;;;33.95;33.11
34073;BME280;20346;52.702;16.886;2023-05-23T08:56:34;100528.23;;;32.96;32.83
34073;BME280;20346;52.702;16.886;2023-05-23T08:59:23;100527.01;;;32.25;32.50
34073;BME280;20346;52.702;16.886;2023-05-23T09:02:11;100526.31;;;31.59;32.24
34073;BME280;20346;52.702;16.886;2023-05-23T09:04:58;100526.55;;;30.96;31.87
34073;BME280;20346;52.702;16.886;2023-05-23T09:07:45;100523.63;;;30.29;31.48
34073;BME280;20346;52.702;16.886;2023-05-23T09:10:36;100522.10;;;29.80;31.81
34073;BME280;20346;52.702;16.886;2023-05-23T09:13:22;100519.67;;;29.43;31.36
34073;BME280;20346;52.702;16.886;2023-05-23T09:16:10;100517.95;;;28.85;31.11
34073;BME280;20346;52.702;16.886;2023-05-23T09:18:56;100514.45;;;28.23;31.07
34073;BME280;20346;52.702;16.886;2023-05-23T09:21:43;100513.02;;;27.87;31.19
34073;BME280;20346;52.702;16.886;2023-05-23T09:24:34;100518.65;;;27.45;30.85
34073;BME280;20346;52.702;16.886;2023-05-23T09:27:22;100512.80;;;27.10;31.10
34073;BME280;20346;52.702;16.886;2023-05-23T09:30:09;100510.50;;;26.93;31.18
34073;BME280;20346;52.702;16.886;2023-05-23T09:33:02;100507.39;;;26.68;31.09
34073;BME280;20346;52.702;16.886;2023-05-23T09:35:52;100503.63;;;26.26;31.10
34073;BME280;20346;52.702;16.886;2023-05-23T09:38:40;100507.05;;;25.98;31.30
34073;BME280;20346;52.702;16.886;2023-05-23T09:45:28;100507.64;;;25.60;31.47
34073;BME280;20346;52.702;16.886;2023-05-23T09:48:28;100506.73;;;25.41;31.65
34073;BME280;20346;52.702;16.886;2023-05-23T09:51:21;100506.16;;;25.15;31.53
34073;BME280;20346;52.702;16.886;2023-05-23T09:54:08;100502.84;;;24.85;31.54
34073;BME280;20346;52.702;16.886;2023-05-23T09:56:59;100505.60;;;24.58;31.52
34073;BME280;20346;52.702;16.886;2023-05-23T09:59:53;100506.10;;;24.31;31.75
34073;BME280;20346;52.702;16.886;2023-05-23T10:06:06;100500.55;;;23.90;31.85
34073;BME280;20346;52.702;16.886;2023-05-23T10:09:00;100500.34;;;23.76;32.06
34073;BME280;20346;52.702;16.886;2023-05-23T10:15:22;100490.55;;;23.56;32.23
34073;BME280;20346;52.702;16.886;2023-05-23T10:18:17;100489.91;;;23.42;32.25
34073;BME280;20346;52.702;16.886;2023-05-23T10:21:10;100489.25;;;23.30;32.24
34073;BME280;20346;52.702;16.886;2023-05-23T10:23:58;100490.52;;;23.25;32.42
34073;BME280;20346;52.702;16.886;2023-05-23T10:26:45;100487.77;;;23.28;32.68
34073;BME280;20346;52.702;16.886;2023-05-23T10:29:32;100487.00;;;23.34;32.86
34073;BME280;20346;52.702;16.886;2023-05-23T10:32:22;100483.08;;;23.37;32.84
34073;BME280;20346;52.702;16.886;2023-05-23T10:35:20;100480.50;;;23.34;32.89
34073;BME280;20346;52.702;16.886;2023-05-23T10:41:50;100482.16;;;23.35;33.28
34073;BME280;20346;52.702;16.886;2023-05-23T10:44:28;100474.59;;;23.35;33.35
34073;BME280;20346;52.702;16.886;2023-05-23T10:47:25;100477.10;;;23.39;33.38
34073;BME280;20346;52.702;16.886;2023-05-23T10:50:35;100476.58;;;23.44;33.46
34073;BME280;20346;52.702;16.886;2023-05-23T10:53:22;100473.60;;;23.49;33.55
34073;BME280;20346;52.702;16.886;2023-05-23T10:56:09;100472.56;;;23.54;33.67
34073;BME280;20346;52.702;16.886;2023-05-23T10:58:56;100473.89;;;23.55;33.72
34073;BME280;20346;52.702;16.886;2023-05-23T11:01:43;100472.41;;;23.56;33.74
34073;BME280;20346;52.702;16.886;2023-05-23T11:04:29;100475.63;;;23.62;33.90
34073;BME280;20346;52.702;16.886;2023-05-23T11:07:31;100470.40;;;23.69;34.09
34073;BME280;20346;52.702;16.886;2023-05-23T11:10:18;100474.16;;;23.78;34.15
34073;BME280;20346;52.702;16.886;2023-05-23T11:13:07;100472.29;;;23.89;34.12
34073;BME280;20346;52.702;16.886;2023-05-23T11:16:02;100475.12;;;23.98;33.90
34073;BME280;20346;52.702;16.886;2023-05-23T11:22:07;100474.20;;;24.08;33.97
34073;BME280;20346;52.702;16.886;2023-05-23T11:24:55;100472.84;;;24.17;34.07
34073;BME280;20346;52.702;16.886;2023-05-23T11:27:45;100473.52;;;24.26;34.16
34073;BME280;20346;52.702;16.886;2023-05-23T11:30:31;100468.11;;;24.37;34.16
34073;BME280;20346;52.702;16.886;2023-05-23T11:33:18;100468.45;;;24.45;34.08
34073;BME280;20346;52.702;16.886;2023-05-23T11:36:06;100472.70;;;24.56;34.18
34073;BME280;20346;52.702;16.886;2023-05-23T11:38:52;100470.35;;;24.65;34.23
34073;BME280;20346;52.702;16.886;2023-05-23T11:41:40;100471.79;;;24.72;34.31
34073;BME280;20346;52.702;16.886;2023-05-23T11:44:27;100469.29;;;24.81;34.12
34073;BME280;20346;52.702;16.886;2023-05-23T11:47:13;100469.63;;;24.77;34.13
34073;BME280;20346;52.702;16.886;2023-05-23T11:49:59;100471.53;;;24.64;33.98
34073;BME280;20346;52.702;16.886;2023-05-23T11:52:46;100467.77;;;24.51;34.00
34073;BME280;20346;52.702;16.886;2023-05-23T11:55:38;100466.60;;;24.43;34.19
34073;BME280;20346;52.702;16.886;2023-05-23T11:58:27;100469.49;;;24.40;34.10
34073;BME280;20346;52.702;16.886;2023-05-23T12:01:14;100469.66;;;24.33;34.11
34073;BME280;20346;52.702;16.886;2023-05-23T12:04:08;100469.10;;;24.31;34.12
34073;BME280;20346;52.702;16.886;2023-05-23T12:06:56;100468.21;;;24.31;34.24
34073;BME280;20346;52.702;16.886;2023-05-23T12:09:43;100466.38;;;24.30;34.22
34073;BME280;20346;52.702;16.886;2023-05-23T12:12:31;100463.92;;;24.32;34.31
34073;BME280;20346;52.702;16.886;2023-05-23T12:15:17;100462.23;;;24.33;34.22
34073;BME280;20346;52.702;16.886;2023-05-23T12:18:03;100460.23;;;24.37;34.30
34073;BME280;20346;52.702;16.886;2023-05-23T12:20:50;100456.40;;;24.34;34.08
34073;BME280;20346;52.702;16.886;2023-05-23T12:23:38;100448.39;;;24.30;34.18
34073;BME280;20346;52.702;16.886;2023-05-23T12:26:24;100446.58;;;24.29;34.30
34073;BME280;20346;52.702;16.886;2023-05-23T12:29:10;100448.85;;;24.24;34.49
34073;BME280;20346;52.702;16.886;2023-05-23T12:31:57;100444.34;;;24.19;34.66
34073;BME280;20346;52.702;16.886;2023-05-23T12:34:43;100450.65;;;24.12;34.92
34073;BME280;20346;52.702;16.886;2023-05-23T12:37:30;100458.18;;;24.03;34.80
34073;BME280;20346;52.702;16.886;2023-05-23T12:40:17;100466.08;;;23.85;34.95
34073;BME280;20346;52.702;16.886;2023-05-23T12:43:08;100470.33;;;23.63;35.32
34073;BME280;20346;52.702;16.886;2023-05-23T12:45:55;100472.83;;;23.50;35.49
34073;BME280;20346;52.702;16.886;2023-05-23T12:48:41;100478.95;;;23.34;35.69
34073;BME280;20346;52.702;16.886;2023-05-23T12:51:27;100478.54;;;23.25;35.97
34073;BME280;20346;52.702;16.886;2023-05-23T12:54:13;100486.91;;;23.16;36.18
34073;BME280;20346;52.702;16.886;2023-05-23T12:56:59;100493.30;;;23.07;36.57
34073;BME280;20346;52.702;16.886;2023-05-23T12:59:46;100489.48;;;23.01;36.86
34073;BME280;20346;52.702;16.886;2023-05-23T13:02:32;100495.20;;;22.95;36.94
34073;BME280;20346;52.702;16.886;2023-05-23T13:05:18;100497.42;;;22.84;37.11
34073;BME280;20346;52.702;16.886;2023-05-23T13:08:04;100495.86;;;22.65;37.49
34073;BME280;20346;52.702;16.886;2023-05-23T13:10:54;100492.11;;;22.48;37.61
34073;BME280;20346;52.702;16.886;2023-05-23T13:13:41;100497.02;;;22.33;38.08
34073;BME280;20346;52.702;16.886;2023-05-23T13:16:27;100497.21;;;22.17;38.39
34073;BME280;20346;52.702;16.886;2023-05-23T13:19:13;100503.29;;;22.04;38.64
34073;BME280;20346;52.702;16.886;2023-05-23T13:21:59;100508.66;;;21.92;38.82
34073;BME280;20346;52.702;16.886;2023-05-23T13:24:46;100503.69;;;21.77;39.24
34073;BME280;20346;52.702;16.886;2023-05-23T13:27:33;100501.50;;;21.64;39.66
34073;BME280;20346;52.702;16.886;2023-05-23T13:30:19;100502.25;;;21.58;39.90
34073;BME280;20346;52.702;16.886;2023-05-23T13:33:06;100501.59;;;21.57;40.45
34073;BME280;20346;52.702;16.886;2023-05-23T13:35:52;100494.80;;;21.56;40.49
34073;BME280;20346;52.702;16.886;2023-05-23T13:38:39;100491.15;;;21.51;40.79
34073;BME280;20346;52.702;16.886;2023-05-23T13:41:25;100494.52;;;21.44;41.20
34073;BME280;20346;52.702;16.886;2023-05-23T13:44:12;100503.61;;;21.39;41.56
34073;BME280;20346;52.702;16.886;2023-05-23T13:47:09;100499.74;;;21.34;41.69
34073;BME280;20346;52.702;16.886;2023-05-23T13:49:56;100497.89;;;21.28;42.25
34073;BME280;20346;52.702;16.886;2023-05-23T13:52:42;100510.35;;;21.24;42.42
34073;BME280;20346;52.702;16.886;2023-05-23T13:55:28;100512.81;;;21.15;42.46
34073;BME280;20346;52.702;16.886;2023-05-23T13:58:15;100508.09;;;21.03;42.76
34073;BME280;20346;52.702;16.886;2023-05-23T14:01:01;100501.14;;;20.94;42.95
34073;BME280;20346;52.702;16.886;2023-05-23T14:03:47;100506.42;;;20.85;43.22
34073;BME280;20346;52.702;16.886;2023-05-23T14:06:33;100510.09;;;20.79;43.64
34073;BME280;20346;52.702;16.886;2023-05-23T14:09:19;100508.90;;;20.76;43.61
34073;BME280;20346;52.702;16.886;2023-05-23T14:12:06;100508.69;;;20.74;43.79
34073;BME280;20346;52.702;16.886;2023-05-23T14:14:52;100511.54;;;20.70;44.10
34073;BME280;20346;52.702;16.886;2023-05-23T14:17:38;100511.98;;;20.69;44.26
34073;BME280;20346;52.702;16.886;2023-05-23T14:20:24;100510.50;;;20.70;44.44
34073;BME280;20346;52.702;16.886;2023-05-23T14:23:11;100511.58;;;20.72;44.63
34073;BME280;20346;52.702;16.886;2023-05-23T14:25:57;100514.15;;;20.79;44.83
34073;BME280;20346;52.702;16.886;2023-05-23T14:28:43;100510.26;;;20.82;44.68
34073;BME280;20346;52.702;16.886;2023-05-23T14:32:06;100507.10;;;20.80;44.98
34073;BME280;20346;52.702;16.886;2023-05-23T14:34:52;100510.55;;;20.83;45.19
34073;BME280;20346;52.702;16.886;2023-05-23T14:37:38;100509.15;;;20.86;45.25
34073;BME280;20346;52.702;16.886;2023-05-23T14:40:24;100510.41;;;20.89;45.55
34073;BME280;20346;52.702;16.886;2023-05-23T14:43:10;100509.66;;;20.95;45.67
34073;BME280;20346;52.702;16.886;2023-05-23T14:45:58;100512.81;;;21.01;45.79
34073;BME280;20346;52.702;16.886;2023-05-23T14:48:44;100509.98;;;21.10;45.74
34073;BME280;20346;52.702;16.886;2023-05-23T14:51:30;100506.48;;;21.16;45.83
34073;BME280;20346;52.702;16.886;2023-05-23T14:54:17;100506.83;;;21.22;46.05
34073;BME280;20346;52.702;16.886;2023-05-23T14:57:03;100506.95;;;21.29;46.24
34073;BME280;20346;52.702;16.886;2023-05-23T14:59:49;100509.52;;;21.35;46.34
34073;BME280;20346;52.702;16.886;2023-05-23T15:02:36;100512.63;;;21.41;46.44
34073;BME280;20346;52.702;16.886;2023-05-23T15:05:22;100513.88;;;21.46;46.42
34073;BME280;20346;52.702;16.886;2023-05-23T15:08:08;100512.45;;;21.49;46.48
34073;BME280;20346;52.702;16.886;2023-05-23T15:10:55;100512.32;;;21.52;46.33
34073;BME280;20346;52.702;16.886;2023-05-23T15:13:41;100511.83;;;21.48;46.34
34073;BME280;20346;52.702;16.886;2023-05-23T15:16:27;100513.76;;;21.42;46.58
34073;BME280;20346;52.702;16.886;2023-05-23T15:19:17;100514.45;;;21.37;46.56
34073;BME280;20346;52.702;16.886;2023-05-23T15:22:04;100513.98;;;21.31;46.57